aviador You're here:

LFBD Decoded Metar

BORDEAUX in FRANCE
Report Time2017-11-22 23:00:00
UTC Time2017-11-22 23:34:48
Flight Rules vfr VFR
Wind160° at 10 kt
W.Decomp.*RWY 11: 6.3 kt HW 7.8 kt RCW
RWY 23: 3.6 kt HW 9.3 kt LCW
W.Rank160° ranks 33
Current wind is above 160° avg. (5.6)
Visibility9999 m
Phenomena:N/A
Clouds:N/A
Expected CloudBase > 2,400 ft AGL from Temp-Dew spread
CeilingNone
Temp13°C (ISA -2)
Dew Point07°C (67% RH)
AAT8.7°C
QNH1007 hPa
Density Alt351 ft
Elevation200 ft
Report Wrong Elevation
Raw Report
LFBD 222300Z AUTO 16010KT CAVOK 13/07 Q1007 TEMPO 18015G25KT=

Extra information for LFBD:More info

Metar Taf Metar & Taf Last 4 Metars F.Rules Stats Wind Profile Meteogram Temp Stats Airport Information Weather charts Add Link Nearby VenuesMetar ALERT Operation Metar Decoded Social comments